Munson Island, Florida
Current Conditions -  °F | °C
As of 3:53 AM on Friday 31 Oct 2014 (Local Time) from KNQX Reporting Station
Clear Clear  
Wind Chill: 74°   Ceiling: Unl
Heat Index: 74°   Visibility: 10mi
Dew Point: 68°   Wind: 5mph
Humidity: 82%   Direction: 250°WSW
Pressure: 29.85"   Gusts: NA
Location:  24.5796°N, 81.6849°W
Report Text: KNQX 310753Z AUTO 25004KT 10SM CLR 23/20 A2985 RMK AO2 SLP108 T02330200 $
Loading
Personal Weather Stations






























Interactive Weather Map
Tropical Storm Tracking
New forecast layout! Learn more

10-Day Weather Forecast

Advertisements
Track Severe Weather on mobile